createdAt,value
2023-05-06T00:01:18.399Z,15.99
2023-05-06T00:03:55.536Z,16.28
2023-05-06T00:06:37.097Z,15.68
2023-05-06T00:09:30.446Z,15.12
2023-05-06T00:12:11.965Z,15.44
2023-05-06T00:14:40.022Z,15.23
2023-05-06T00:17:20.199Z,15.77
2023-05-06T00:19:58.760Z,15.36
2023-05-06T00:22:42.744Z,15.10
2023-05-06T00:25:26.476Z,15.65
2023-05-06T00:27:57.383Z,15.26
2023-05-06T00:30:35.627Z,15.03
2023-05-06T00:33:42.825Z,14.80
2023-05-06T00:36:12.233Z,15.04
2023-05-06T00:38:41.711Z,15.00
2023-05-06T00:41:15.919Z,14.49
2023-05-06T00:43:57.049Z,14.60
2023-05-06T00:46:55.368Z,14.89
2023-05-06T00:49:29.203Z,14.76
2023-05-06T00:52:30.347Z,14.66
2023-05-06T00:54:59.684Z,14.61
2023-05-06T01:00:57.898Z,14.56
2023-05-06T01:03:23.902Z,14.59
2023-05-06T01:06:08.787Z,14.41
2023-05-06T01:09:09.223Z,15.57
2023-05-06T01:11:52.634Z,15.17
2023-05-06T01:17:30.282Z,14.02
2023-05-06T01:20:22.485Z,13.93
2023-05-06T01:22:54.864Z,14.14
2023-05-06T01:25:36.445Z,15.13
2023-05-06T01:28:17.506Z,13.96
2023-05-06T01:34:15.916Z,14.39
2023-05-06T01:37:20.395Z,14.56
2023-05-06T01:40:09.230Z,14.50
2023-05-06T01:43:18.073Z,14.71
2023-05-06T01:45:37.960Z,14.00
2023-05-06T01:48:12.470Z,13.73
2023-05-06T01:53:56.253Z,13.88
2023-05-06T01:56:36.037Z,14.44
2023-05-06T01:59:16.090Z,14.15
2023-05-06T02:02:38.652Z,13.97
2023-05-06T02:04:53.693Z,14.12
2023-05-06T02:07:30.640Z,13.59
2023-05-06T02:10:06.008Z,14.48
2023-05-06T02:13:09.909Z,13.95
2023-05-06T02:15:49.361Z,13.45
2023-05-06T02:21:26.036Z,13.45
2023-05-06T02:24:07.626Z,14.01
2023-05-06T02:26:37.696Z,13.42
2023-05-06T02:29:26.957Z,14.26
2023-05-06T02:32:05.080Z,13.55
2023-05-06T02:34:36.177Z,13.59
2023-05-06T02:37:09.274Z,14.45
2023-05-06T02:39:51.614Z,13.50
2023-05-06T02:42:25.696Z,13.13
2023-05-06T02:45:06.569Z,13.71
2023-05-06T02:47:37.532Z,13.93
2023-05-06T02:50:18.432Z,13.23
2023-05-06T02:52:52.583Z,13.15
2023-05-06T02:55:33.787Z,13.56
2023-05-06T02:58:04.740Z,13.84
2023-05-06T03:00:32.756Z,12.86
2023-05-06T03:03:14.787Z,13.09
2023-05-06T03:05:41.868Z,13.13
2023-05-06T03:08:10.986Z,12.90
2023-05-06T03:10:39.152Z,13.67
2023-05-06T03:13:14.520Z,13.78
2023-05-06T03:16:05.267Z,13.03
2023-05-06T03:20:21.314Z,13.65
2023-05-06T03:21:57.250Z,13.25
2023-05-06T03:24:29.958Z,13.19
2023-05-06T03:27:03.844Z,13.74
2023-05-06T03:29:34.537Z,13.89
2023-05-06T03:32:07.061Z,13.62
2023-05-06T03:35:36.251Z,13.26
2023-05-06T03:38:17.871Z,12.82
2023-05-06T03:40:42.676Z,13.50
2023-05-06T03:43:16.009Z,13.00
2023-05-06T03:45:57.268Z,13.04
2023-05-06T03:48:31.749Z,13.29
2023-05-06T03:51:00.745Z,13.30
2023-05-06T03:53:30.651Z,13.02
2023-05-06T03:56:25.429Z,13.03
2023-05-06T03:59:04.046Z,12.98
2023-05-06T04:02:39.518Z,13.18
2023-05-06T04:04:55.147Z,12.97
2023-05-06T04:07:29.287Z,12.97
2023-05-06T04:10:23.249Z,13.01
2023-05-06T04:12:49.448Z,13.52
2023-05-06T04:15:20.217Z,13.03
2023-05-06T04:17:49.230Z,13.49
2023-05-06T04:20:16.257Z,12.93
2023-05-06T04:22:43.000Z,12.78
2023-05-06T04:25:14.223Z,12.96
2023-05-06T04:28:07.617Z,13.65
2023-05-06T04:31:04.613Z,13.87
2023-05-06T04:33:40.147Z,12.98
2023-05-06T04:39:11.933Z,12.71
2023-05-06T04:41:47.546Z,12.96
2023-05-06T04:44:16.796Z,13.57
2023-05-06T04:46:43.468Z,13.09
2023-05-06T04:49:35.638Z,13.11
2023-05-06T04:54:59.782Z,13.23
2023-05-06T04:57:49.660Z,14.09
2023-05-06T05:00:27.640Z,13.34
2023-05-06T05:03:04.703Z,13.48
2023-05-06T05:05:39.074Z,13.60
2023-05-06T05:08:05.781Z,14.51
2023-05-06T05:10:40.848Z,13.45
2023-05-06T05:13:07.662Z,13.97
2023-05-06T05:15:34.437Z,13.90
2023-05-06T05:18:01.235Z,13.81
2023-05-06T05:20:29.539Z,13.85
2023-05-06T05:23:13.128Z,14.14
2023-05-06T05:25:39.860Z,13.75
2023-05-06T05:28:10.561Z,13.72
2023-05-06T05:30:37.308Z,13.90
2023-05-06T05:33:04.343Z,13.91
2023-05-06T05:35:31.868Z,13.92
2023-05-06T05:38:01.449Z,13.92
2023-05-06T05:40:28.239Z,14.04
2023-05-06T05:42:55.484Z,14.13
2023-05-06T05:45:22.207Z,14.28
2023-05-06T05:47:48.903Z,14.45
2023-05-06T05:50:15.574Z,14.71
2023-05-06T05:52:50.250Z,14.39
2023-05-06T05:55:22.057Z,15.40
2023-05-06T05:57:56.331Z,14.46
2023-05-06T06:00:26.225Z,15.75
2023-05-06T06:06:47.182Z,14.84
2023-05-06T06:09:13.874Z,15.31
2023-05-06T06:11:40.970Z,14.97
2023-05-06T06:14:07.869Z,15.65
2023-05-06T06:16:34.497Z,15.62
2023-05-06T06:19:02.711Z,15.26
2023-05-06T06:21:29.488Z,14.91
2023-05-06T06:23:56.268Z,15.56
2023-05-06T06:26:44.773Z,15.28
2023-05-06T06:29:21.563Z,15.59
2023-05-06T06:31:51.507Z,15.63
2023-05-06T06:34:22.248Z,15.46
2023-05-06T06:36:55.087Z,15.81
2023-05-06T06:39:21.707Z,15.79
2023-05-06T06:41:50.418Z,15.53
2023-05-06T06:44:50.089Z,15.89
2023-05-06T06:47:16.822Z,15.94
2023-05-06T06:49:52.719Z,15.67
2023-05-06T06:52:19.302Z,16.14
2023-05-06T06:54:45.992Z,16.25
2023-05-06T06:57:21.685Z,16.51
2023-05-06T06:59:50.376Z,16.26
2023-05-06T07:02:17.133Z,16.30
2023-05-06T07:04:55.810Z,16.12
2023-05-06T07:07:44.058Z,16.36
2023-05-06T07:10:25.325Z,16.26
2023-05-06T07:12:57.627Z,16.88
2023-05-06T07:15:33.484Z,16.42
2023-05-06T07:18:09.515Z,17.40
2023-05-06T07:20:36.021Z,16.68
2023-05-06T07:23:04.155Z,16.93
2023-05-06T07:25:31.336Z,16.96
2023-05-06T07:27:57.989Z,17.19
2023-05-06T07:30:24.523Z,16.91
2023-05-06T07:32:56.936Z,17.21
2023-05-06T07:35:23.390Z,17.76
2023-05-06T07:37:55.793Z,17.31
2023-05-06T07:40:22.363Z,17.01
2023-05-06T07:42:48.717Z,17.90
2023-05-06T07:45:15.380Z,18.21
2023-05-06T07:47:41.914Z,18.03
2023-05-06T07:50:08.828Z,18.32
2023-05-06T07:52:35.564Z,18.34
2023-05-06T07:55:01.938Z,18.38
2023-05-06T07:57:28.416Z,18.57
2023-05-06T07:59:55.065Z,18.47
2023-05-06T08:02:21.781Z,18.75
2023-05-06T08:04:50.177Z,18.51
2023-05-06T08:07:17.902Z,18.67
2023-05-06T08:09:44.275Z,18.08
2023-05-06T08:12:10.810Z,18.11
2023-05-06T08:14:37.278Z,18.22
2023-05-06T08:17:04.012Z,18.80
2023-05-06T08:19:30.786Z,18.71
2023-05-06T08:21:57.247Z,18.41
2023-05-06T08:24:23.836Z,18.52
2023-05-06T08:26:50.352Z,18.97
2023-05-06T08:29:23.467Z,18.97
2023-05-06T08:31:49.903Z,18.90
2023-05-06T08:34:18.505Z,19.52
2023-05-06T08:36:45.339Z,19.35
2023-05-06T08:39:12.545Z,19.37
2023-05-06T08:41:40.355Z,19.83
2023-05-06T08:44:08.494Z,19.77
2023-05-06T08:46:35.485Z,19.49
2023-05-06T08:49:02.416Z,19.99
2023-05-06T08:51:31.793Z,20.07
2023-05-06T08:54:02.395Z,19.14
2023-05-06T08:56:31.029Z,19.82
2023-05-06T08:58:59.656Z,19.14
2023-05-06T09:01:29.112Z,20.42
2023-05-06T09:03:58.200Z,19.56
2023-05-06T09:06:25.141Z,20.60
2023-05-06T09:08:51.712Z,20.41
2023-05-06T09:11:26.722Z,20.16
2023-05-06T09:14:11.922Z,21.00
2023-05-06T09:16:40.244Z,20.92
2023-05-06T09:19:06.855Z,21.03
2023-05-06T09:21:41.367Z,20.64
2023-05-06T09:24:09.536Z,21.23
2023-05-06T09:26:37.568Z,21.60
2023-05-06T09:29:05.168Z,21.71
2023-05-06T09:31:31.971Z,22.16
2023-05-06T09:34:01.041Z,21.94
2023-05-06T09:36:28.407Z,21.46
2023-05-06T09:38:55.887Z,21.27
2023-05-06T09:41:28.136Z,22.17
2023-05-06T09:43:56.270Z,22.11
2023-05-06T09:46:24.267Z,22.21
2023-05-06T09:48:52.838Z,22.25
2023-05-06T09:51:22.249Z,21.72
2023-05-06T09:53:48.941Z,22.57
2023-05-06T09:56:18.144Z,23.07
2023-05-06T09:58:46.079Z,23.34
2023-05-06T10:01:19.167Z,23.45
2023-05-06T10:03:52.999Z,23.29
2023-05-06T10:06:22.979Z,23.14
2023-05-06T10:08:50.133Z,23.21
2023-05-06T10:11:17.899Z,23.53
2023-05-06T10:13:44.600Z,23.02
2023-05-06T10:16:19.457Z,23.61
2023-05-06T10:18:52.141Z,23.90
2023-05-06T10:21:24.211Z,24.36
2023-05-06T10:24:01.211Z,24.86
2023-05-06T10:26:30.490Z,24.70
2023-05-06T10:29:00.408Z,24.32
2023-05-06T10:31:30.119Z,24.79
2023-05-06T10:34:00.806Z,24.33
2023-05-06T10:36:32.193Z,24.80
2023-05-06T10:39:01.652Z,24.76
2023-05-06T10:41:34.881Z,24.15
2023-05-06T10:44:08.917Z,24.36
2023-05-06T10:47:02.189Z,24.84
2023-05-06T10:49:29.192Z,24.03
2023-05-06T10:52:14.889Z,24.66
2023-05-06T10:54:51.378Z,24.53
2023-05-06T10:57:18.593Z,25.58
2023-05-06T10:59:51.468Z,24.87
2023-05-06T11:02:20.284Z,24.96
2023-05-06T11:04:52.242Z,25.17
2023-05-06T11:07:28.945Z,26.02
2023-05-06T11:10:04.321Z,26.72
2023-05-06T11:12:49.374Z,27.84
2023-05-06T11:15:41.548Z,27.62
2023-05-06T11:18:29.523Z,28.44
2023-05-06T11:21:05.403Z,28.20
2023-05-06T11:23:54.612Z,28.63
2023-05-06T11:26:21.452Z,28.92
2023-05-06T11:28:52.107Z,29.48
2023-05-06T11:31:21.209Z,30.24
2023-05-06T11:33:50.288Z,29.95
2023-05-06T11:36:18.385Z,30.11
2023-05-06T11:38:50.078Z,29.51
2023-05-06T11:44:11.577Z,29.24
2023-05-06T11:46:39.229Z,29.31
2023-05-06T11:49:06.221Z,29.99
2023-05-06T11:51:33.420Z,29.11
2023-05-06T11:54:08.917Z,29.88
2023-05-06T11:56:50.940Z,30.23
2023-05-06T11:59:18.799Z,29.90
2023-05-06T12:01:46.273Z,29.14
2023-05-06T12:04:13.433Z,29.84
2023-05-06T12:06:40.322Z,29.39
2023-05-06T12:09:11.216Z,27.84
2023-05-06T12:11:38.856Z,27.59
2023-05-06T12:14:07.267Z,27.29
2023-05-06T12:16:35.365Z,27.83
2023-05-06T12:19:02.648Z,27.79
2023-05-06T12:21:30.090Z,29.13
2023-05-06T12:23:59.503Z,28.13
2023-05-06T12:26:31.174Z,28.15
2023-05-06T12:29:09.546Z,28.25
2023-05-06T12:31:36.342Z,28.42
2023-05-06T12:34:03.621Z,28.21
2023-05-06T12:36:30.758Z,28.21
2023-05-06T12:39:00.752Z,27.59
2023-05-06T12:41:43.866Z,28.08
2023-05-06T12:44:29.526Z,28.55
2023-05-06T12:46:56.075Z,28.44
2023-05-06T12:49:22.541Z,28.13
2023-05-06T12:52:06.043Z,28.55
2023-05-06T12:54:32.440Z,28.06
2023-05-06T12:56:58.840Z,27.80
2023-05-06T12:59:26.605Z,28.29
2023-05-06T13:01:53.148Z,28.08
2023-05-06T13:04:19.552Z,28.00
2023-05-06T13:06:46.231Z,27.94
2023-05-06T13:09:14.737Z,27.62
2023-05-06T13:11:41.750Z,27.40
2023-05-06T13:14:08.995Z,27.05
2023-05-06T13:16:35.466Z,27.31
2023-05-06T13:19:03.365Z,27.25
2023-05-06T13:21:29.727Z,26.92
2023-05-06T13:23:56.162Z,26.41
2023-05-06T13:26:22.576Z,26.36
2023-05-06T13:28:48.982Z,26.68
2023-05-06T13:31:15.530Z,26.11
2023-05-06T13:33:41.960Z,26.06
2023-05-06T13:36:08.587Z,26.31
2023-05-06T13:38:35.308Z,25.73
2023-05-06T13:41:01.689Z,25.60
2023-05-06T13:43:28.162Z,25.55
2023-05-06T13:45:54.530Z,24.79
2023-05-06T13:48:21.190Z,25.21
2023-05-06T13:50:47.859Z,24.82
2023-05-06T13:53:15.051Z,24.91
2023-05-06T13:55:42.715Z,25.06
2023-05-06T13:58:09.201Z,23.73
2023-05-06T14:00:45.957Z,22.10
2023-05-06T14:03:12.533Z,20.90
2023-05-06T14:05:39.189Z,21.22
2023-05-06T14:08:06.180Z,20.69
2023-05-06T14:10:54.312Z,20.81
2023-05-06T14:13:23.084Z,19.96
2023-05-06T14:16:00.043Z,20.51
2023-05-06T14:18:28.678Z,19.93
2023-05-06T14:20:56.235Z,20.01
2023-05-06T14:23:22.790Z,20.11
2023-05-06T14:25:49.589Z,19.96
2023-05-06T14:28:22.109Z,20.01
2023-05-06T14:30:52.138Z,20.01
2023-05-06T14:33:18.737Z,20.10
2023-05-06T14:36:04.618Z,20.45
2023-05-06T14:38:41.034Z,20.64
2023-05-06T14:41:07.522Z,20.20
2023-05-06T14:43:34.076Z,20.71
2023-05-06T14:46:02.337Z,20.04
2023-05-06T14:48:38.619Z,19.80
2023-05-06T14:51:07.566Z,20.57
2023-05-06T14:53:56.419Z,20.14
2023-05-06T14:56:32.660Z,21.19
2023-05-06T14:59:00.302Z,20.86
2023-05-06T15:01:28.079Z,20.81
2023-05-06T15:03:55.685Z,21.39
2023-05-06T15:06:22.468Z,21.62
2023-05-06T15:08:49.112Z,21.22
2023-05-06T15:11:18.514Z,21.58
2023-05-06T15:13:56.635Z,21.71
2023-05-06T15:16:24.409Z,21.68
2023-05-06T15:18:51.533Z,21.39
2023-05-06T15:21:24.042Z,21.98
2023-05-06T15:23:55.199Z,21.51
2023-05-06T15:26:22.603Z,22.38
2023-05-06T15:28:49.232Z,21.91
2023-05-06T15:31:15.661Z,22.18
2023-05-06T15:33:42.167Z,22.33
2023-05-06T15:36:08.960Z,22.42
2023-05-06T15:38:58.377Z,22.46
2023-05-06T15:41:37.912Z,22.39
2023-05-06T15:44:06.169Z,21.72
2023-05-06T15:46:33.582Z,22.41
2023-05-06T15:49:29.446Z,22.37
2023-05-06T15:51:47.254Z,21.96
2023-05-06T15:54:18.255Z,21.88
2023-05-06T15:56:46.040Z,22.01
2023-05-06T15:59:15.636Z,21.71
2023-05-06T16:02:24.402Z,20.98
2023-05-06T16:04:28.994Z,22.05
2023-05-06T16:06:56.130Z,21.73
2023-05-06T16:09:22.570Z,21.59
2023-05-06T16:11:49.552Z,21.46
2023-05-06T16:14:16.181Z,22.30
2023-05-06T16:16:42.904Z,21.44
2023-05-06T16:19:09.595Z,21.31
2023-05-06T16:21:39.753Z,21.65
2023-05-06T16:24:06.413Z,21.37
2023-05-06T16:26:32.934Z,21.86
2023-05-06T16:29:01.416Z,21.10
2023-05-06T16:31:31.989Z,21.29
2023-05-06T16:34:04.453Z,21.87
2023-05-06T16:36:38.483Z,21.31
2023-05-06T16:39:07.826Z,21.24
2023-05-06T16:41:34.478Z,21.33
2023-05-06T16:44:04.595Z,21.16
2023-05-06T16:46:31.187Z,21.51
2023-05-06T16:49:25.712Z,21.22
2023-05-06T16:51:53.171Z,21.70
2023-05-06T16:54:20.050Z,21.24
2023-05-06T16:56:51.983Z,21.94
2023-05-06T16:59:21.712Z,21.80
2023-05-06T17:01:48.922Z,21.37
2023-05-06T17:04:16.070Z,21.69
2023-05-06T17:06:42.473Z,21.36
2023-05-06T17:09:08.828Z,21.24
2023-05-06T17:11:35.574Z,21.46
2023-05-06T17:14:02.039Z,21.18
2023-05-06T17:16:28.462Z,21.63
2023-05-06T17:18:54.894Z,21.37
2023-05-06T17:21:21.375Z,21.32
2023-05-06T17:23:47.853Z,21.83
2023-05-06T17:26:16.594Z,21.84
2023-05-06T17:28:43.153Z,21.67
2023-05-06T17:31:09.566Z,21.57
2023-05-06T17:33:36.435Z,21.58
2023-05-06T17:36:08.626Z,21.27
2023-05-06T17:38:35.301Z,21.53
2023-05-06T17:41:01.705Z,20.96
2023-05-06T17:43:28.120Z,20.39
2023-05-06T17:45:54.621Z,20.76
2023-05-06T17:48:21.122Z,20.99
2023-05-06T17:50:47.638Z,21.07
2023-05-06T17:53:14.490Z,21.07
2023-05-06T17:55:41.417Z,20.84
2023-05-06T17:58:10.467Z,21.02
2023-05-06T18:00:37.862Z,21.07
2023-05-06T18:03:04.347Z,20.65
2023-05-06T18:05:30.820Z,20.67
2023-05-06T18:07:58.240Z,20.78
2023-05-06T18:10:24.720Z,20.31
2023-05-06T18:12:53.864Z,20.49
2023-05-06T18:15:20.803Z,20.81
2023-05-06T18:17:47.286Z,20.42
2023-05-06T18:20:13.683Z,20.69
2023-05-06T18:22:40.165Z,20.49
2023-05-06T18:25:07.423Z,20.69
2023-05-06T18:27:33.982Z,20.49
2023-05-06T18:30:02.806Z,20.68
2023-05-06T18:32:31.724Z,20.73
2023-05-06T18:34:58.312Z,20.30
2023-05-06T18:37:28.907Z,20.76
2023-05-06T18:39:55.646Z,20.42
2023-05-06T18:42:22.931Z,20.34
2023-05-06T18:44:53.468Z,20.78
2023-05-06T18:47:20.063Z,20.92
2023-05-06T18:49:46.819Z,20.51
2023-05-06T18:52:15.032Z,20.52
2023-05-06T18:54:43.082Z,20.55
2023-05-06T18:57:10.333Z,19.93
2023-05-06T18:59:36.765Z,20.62
2023-05-06T19:02:04.144Z,20.28
2023-05-06T19:04:31.735Z,20.59
2023-05-06T19:06:58.134Z,20.60
2023-05-06T19:09:24.562Z,20.61
2023-05-06T19:11:51.090Z,19.98
2023-05-06T19:14:17.602Z,19.92
2023-05-06T19:16:44.117Z,20.00
2023-05-06T19:19:11.242Z,20.65
2023-05-06T19:21:38.442Z,20.33
2023-05-06T19:24:06.362Z,20.35
2023-05-06T19:26:32.828Z,20.40
2023-05-06T19:28:59.193Z,20.47
2023-05-06T19:31:25.916Z,20.47
2023-05-06T19:33:52.381Z,19.95
2023-05-06T19:36:18.762Z,20.31
2023-05-06T19:38:45.167Z,20.21
2023-05-06T19:41:13.225Z,20.23
2023-05-06T19:43:43.552Z,19.98
2023-05-06T19:46:11.495Z,20.45
2023-05-06T19:48:39.044Z,20.56
2023-05-06T19:51:06.540Z,20.35
2023-05-06T19:53:34.144Z,20.57
2023-05-06T19:56:14.050Z,20.49
2023-05-06T19:58:40.910Z,20.26
2023-05-06T20:01:07.377Z,20.35
2023-05-06T20:03:34.570Z,20.36
2023-05-06T20:06:01.305Z,20.51
2023-05-06T20:08:27.700Z,20.45
2023-05-06T20:10:54.160Z,20.40
2023-05-06T20:13:20.958Z,20.51
2023-05-06T20:15:47.548Z,19.88
2023-05-06T20:18:14.547Z,19.71
2023-05-06T20:20:41.225Z,20.48
2023-05-06T20:23:07.548Z,19.78
2023-05-06T20:25:36.109Z,19.82
2023-05-06T20:28:05.438Z,20.40
2023-05-06T20:30:31.890Z,20.38
2023-05-06T20:32:58.814Z,20.19
2023-05-06T20:35:26.099Z,20.03
2023-05-06T20:37:54.364Z,20.10
2023-05-06T20:40:20.962Z,19.88
2023-05-06T20:42:48.063Z,20.29
2023-05-06T20:45:14.504Z,19.61
2023-05-06T20:47:40.947Z,19.54
2023-05-06T20:50:07.524Z,20.11
2023-05-06T20:52:34.031Z,19.87
2023-05-06T20:55:00.972Z,19.86
2023-05-06T20:57:28.312Z,19.70
2023-05-06T20:59:55.984Z,19.97
2023-05-06T21:02:22.445Z,19.57
2023-05-06T21:04:49.255Z,20.11
2023-05-06T21:07:15.671Z,19.52
2023-05-06T21:09:42.027Z,19.88
2023-05-06T21:12:08.400Z,20.13
2023-05-06T21:14:34.788Z,19.99
2023-05-06T21:17:01.351Z,20.14
2023-05-06T21:19:27.838Z,19.63
2023-05-06T21:21:54.188Z,19.48
2023-05-06T21:24:20.558Z,20.02
2023-05-06T21:26:47.007Z,19.94
2023-05-06T21:29:13.352Z,19.93
2023-05-06T21:31:39.961Z,19.86
2023-05-06T21:34:07.908Z,19.99
2023-05-06T21:36:36.231Z,19.95
2023-05-06T21:39:08.507Z,20.07
2023-05-06T21:41:35.985Z,19.95
2023-05-06T21:44:06.827Z,19.87
2023-05-06T21:46:33.747Z,19.73
2023-05-06T21:49:00.705Z,19.91
2023-05-06T21:51:29.045Z,19.10
2023-05-06T21:53:55.504Z,19.25
2023-05-06T21:56:22.155Z,19.61
2023-05-06T21:58:48.786Z,19.35
2023-05-06T22:01:15.614Z,19.50
2023-05-06T22:03:43.908Z,19.35
2023-05-06T22:06:11.083Z,19.56
2023-05-06T22:08:37.578Z,19.72
2023-05-06T22:11:04.166Z,19.27
2023-05-06T22:13:31.072Z,19.52
2023-05-06T22:15:57.686Z,19.56
2023-05-06T22:18:25.846Z,19.49
2023-05-06T22:20:56.385Z,19.69
2023-05-06T22:23:24.293Z,19.06
2023-05-06T22:25:54.120Z,19.66
2023-05-06T22:28:20.652Z,19.37
2023-05-06T22:30:47.091Z,19.09
2023-05-06T22:33:13.467Z,19.17
2023-05-06T22:35:40.328Z,19.06
2023-05-06T22:38:06.739Z,19.72
2023-05-06T22:40:33.067Z,19.30
2023-05-06T22:42:59.524Z,19.63
2023-05-06T22:45:26.046Z,19.63
2023-05-06T22:47:52.447Z,19.19
2023-05-06T22:50:18.928Z,19.68
2023-05-06T22:52:45.443Z,19.64
2023-05-06T22:55:12.124Z,18.59
2023-05-06T22:57:38.954Z,19.49
2023-05-06T23:00:08.105Z,19.52
2023-05-06T23:02:34.570Z,19.51
2023-05-06T23:05:01.242Z,19.52
2023-05-06T23:07:27.667Z,19.07
2023-05-06T23:09:54.087Z,19.60
2023-05-06T23:12:20.578Z,18.90
2023-05-06T23:14:47.070Z,19.61
2023-05-06T23:17:13.535Z,19.20
2023-05-06T23:19:40.153Z,19.68
2023-05-06T23:22:06.498Z,18.98
2023-05-06T23:24:32.847Z,19.37
2023-05-06T23:26:59.343Z,19.57
2023-05-06T23:29:26.299Z,19.47
2023-05-06T23:31:52.867Z,19.11
2023-05-06T23:34:19.513Z,19.21
2023-05-06T23:36:45.874Z,19.21
2023-05-06T23:39:12.416Z,19.69
2023-05-06T23:41:38.877Z,18.94
2023-05-06T23:44:06.041Z,19.58
2023-05-06T23:46:32.913Z,19.45
2023-05-06T23:48:59.378Z,19.38
2023-05-06T23:51:26.504Z,19.42
2023-05-06T23:53:53.155Z,19.26
2023-05-06T23:56:20.554Z,18.78
2023-05-06T23:58:46.953Z,19.00
